createdAt,value
2023-05-21T00:02:06.339Z,25.36
2023-05-21T00:04:54.936Z,25.40
2023-05-21T00:07:46.034Z,25.37
2023-05-21T00:10:34.721Z,25.34
2023-05-21T00:13:23.392Z,25.36
2023-05-21T00:16:13.478Z,25.39
2023-05-21T00:19:02.304Z,25.35
2023-05-21T00:21:51.032Z,25.39
2023-05-21T00:24:39.675Z,25.34
2023-05-21T00:27:28.306Z,25.35
2023-05-21T00:30:17.294Z,25.35
2023-05-21T00:33:07.611Z,25.36
2023-05-21T00:35:56.809Z,25.37
2023-05-21T00:38:46.186Z,25.38
2023-05-21T00:41:35.400Z,25.35
2023-05-21T00:44:25.383Z,25.35
2023-05-21T00:47:18.243Z,25.34
2023-05-21T00:50:10.235Z,25.37
2023-05-21T00:52:59.736Z,25.36
2023-05-21T00:55:49.049Z,25.37
2023-05-21T00:58:38.662Z,25.35
2023-05-21T01:01:27.695Z,25.35
2023-05-21T01:04:16.600Z,25.34
2023-05-21T01:07:09.720Z,25.37
2023-05-21T01:09:58.461Z,25.38
2023-05-21T01:12:49.150Z,25.37
2023-05-21T01:15:39.013Z,25.38
2023-05-21T01:18:28.312Z,25.35
2023-05-21T01:21:17.592Z,25.30
2023-05-21T01:24:08.244Z,25.33
2023-05-21T01:26:58.664Z,25.33
2023-05-21T01:29:47.334Z,25.32
2023-05-21T01:32:44.152Z,25.31
2023-05-21T01:35:38.226Z,25.30
2023-05-21T01:38:32.696Z,25.28
2023-05-21T01:41:23.541Z,25.25
2023-05-21T01:44:13.535Z,25.27
2023-05-21T01:47:03.542Z,25.29
2023-05-21T01:49:53.465Z,25.31
2023-05-21T01:52:50.964Z,25.24
2023-05-21T01:55:42.091Z,25.26
2023-05-21T01:58:32.341Z,25.29
2023-05-21T02:01:21.006Z,25.32
2023-05-21T02:04:09.812Z,25.28
2023-05-21T02:06:58.787Z,25.29
2023-05-21T02:09:47.476Z,25.28
2023-05-21T02:12:36.156Z,25.26
2023-05-21T02:15:26.733Z,25.22
2023-05-21T02:18:16.825Z,25.20
2023-05-21T02:21:05.931Z,25.25
2023-05-21T02:23:54.589Z,25.27
2023-05-21T02:26:43.417Z,25.20
2023-05-21T02:29:32.347Z,25.22
2023-05-21T02:32:23.727Z,25.24
2023-05-21T02:35:13.959Z,25.25
2023-05-21T02:38:04.931Z,25.22
2023-05-21T02:40:53.821Z,25.20
2023-05-21T02:43:42.556Z,25.23
2023-05-21T02:46:31.341Z,25.24
2023-05-21T02:49:21.644Z,25.18
2023-05-21T02:52:10.335Z,25.24
2023-05-21T02:54:58.969Z,25.25
2023-05-21T02:57:47.598Z,25.21
2023-05-21T03:00:36.273Z,25.22
2023-05-21T03:03:25.238Z,25.23
2023-05-21T03:06:16.390Z,25.28
2023-05-21T03:09:05.938Z,25.22
2023-05-21T03:11:54.636Z,25.20
2023-05-21T03:14:44.159Z,25.18
2023-05-21T03:17:32.805Z,25.16
2023-05-21T03:20:21.474Z,25.18
2023-05-21T03:23:15.698Z,25.20
2023-05-21T03:26:05.371Z,25.15
2023-05-21T03:28:53.996Z,25.15
2023-05-21T03:31:42.696Z,25.14
2023-05-21T03:34:31.422Z,25.14
2023-05-21T03:37:20.053Z,25.17
2023-05-21T03:40:11.564Z,25.22
2023-05-21T03:43:00.222Z,25.20
2023-05-21T03:45:48.924Z,25.22
2023-05-21T03:48:40.215Z,25.19
2023-05-21T03:51:30.295Z,25.21
2023-05-21T03:54:18.951Z,25.20
2023-05-21T03:57:09.174Z,25.17
2023-05-21T03:59:59.010Z,25.17
2023-05-21T04:02:48.093Z,25.15
2023-05-21T04:05:36.975Z,25.17
2023-05-21T04:08:28.362Z,25.18
2023-05-21T04:11:16.995Z,25.15
2023-05-21T04:14:07.036Z,25.15
2023-05-21T04:16:56.742Z,25.15
2023-05-21T04:19:45.387Z,25.16
2023-05-21T04:22:35.353Z,25.17
2023-05-21T04:25:25.327Z,25.17
2023-05-21T04:28:14.009Z,25.15
2023-05-21T04:31:05.785Z,25.19
2023-05-21T04:33:55.470Z,25.22
2023-05-21T04:36:44.083Z,25.20
2023-05-21T04:39:32.771Z,25.20
2023-05-21T04:42:24.009Z,25.19
2023-05-21T04:45:13.329Z,25.15
2023-05-21T04:48:03.726Z,25.20
2023-05-21T04:50:53.525Z,25.19
2023-05-21T04:53:42.654Z,25.18
2023-05-21T04:56:33.049Z,25.20
2023-05-21T04:59:21.793Z,25.22
2023-05-21T05:02:10.560Z,25.23
2023-05-21T05:05:00.614Z,25.19
2023-05-21T05:07:49.313Z,25.22
2023-05-21T05:10:37.947Z,25.22
2023-05-21T05:13:27.242Z,25.29
2023-05-21T05:16:18.424Z,25.30
2023-05-21T05:19:07.182Z,25.24
2023-05-21T05:21:57.276Z,25.27
2023-05-21T05:24:45.992Z,25.27
2023-05-21T05:27:36.407Z,25.26
2023-05-21T05:30:27.759Z,25.28
2023-05-21T05:33:16.617Z,25.29
2023-05-21T05:36:05.654Z,25.27
2023-05-21T05:38:55.775Z,25.29
2023-05-21T05:41:44.389Z,25.25
2023-05-21T05:44:33.125Z,25.29
2023-05-21T05:47:21.777Z,25.30
2023-05-21T05:50:10.968Z,25.28
2023-05-21T05:52:59.626Z,25.34
2023-05-21T05:55:49.670Z,25.34
2023-05-21T05:58:38.494Z,25.35
2023-05-21T06:01:28.047Z,25.31
2023-05-21T06:04:16.694Z,25.40
2023-05-21T06:07:05.611Z,25.42
2023-05-21T06:09:55.676Z,25.42
2023-05-21T06:12:45.825Z,25.37
2023-05-21T06:15:35.692Z,25.39
2023-05-21T06:18:26.829Z,25.50
2023-05-21T06:21:15.492Z,25.49
2023-05-21T06:24:05.243Z,25.49
2023-05-21T06:26:53.891Z,25.49
2023-05-21T06:29:43.975Z,25.52
2023-05-21T06:32:32.848Z,25.53
2023-05-21T06:35:21.910Z,25.50
2023-05-21T06:38:10.581Z,25.49
2023-05-21T06:40:59.469Z,25.49
2023-05-21T06:43:48.101Z,25.46
2023-05-21T06:46:38.186Z,25.49
2023-05-21T06:49:26.809Z,25.55
2023-05-21T06:52:15.452Z,25.55
2023-05-21T06:55:06.338Z,25.52
2023-05-21T06:57:55.030Z,25.55
2023-05-21T07:00:43.717Z,25.55
2023-05-21T07:03:33.883Z,25.57
2023-05-21T07:06:22.519Z,25.57
2023-05-21T07:09:11.202Z,25.53
2023-05-21T07:12:00.034Z,25.58
2023-05-21T07:14:49.029Z,25.65
2023-05-21T07:17:37.926Z,25.64
2023-05-21T07:20:27.931Z,25.65
2023-05-21T07:23:16.654Z,25.67
2023-05-21T07:26:05.686Z,25.70
2023-05-21T07:28:54.445Z,25.68
2023-05-21T07:31:43.233Z,25.66
2023-05-21T07:34:33.035Z,25.69
2023-05-21T07:37:23.300Z,25.71
2023-05-21T07:40:13.069Z,25.76
2023-05-21T07:43:04.679Z,25.84
2023-05-21T07:45:53.545Z,25.97
2023-05-21T07:48:44.155Z,26.15
2023-05-21T07:51:33.092Z,26.36
2023-05-21T07:54:23.153Z,26.34
2023-05-21T07:57:11.820Z,26.54
2023-05-21T08:00:00.526Z,26.62
2023-05-21T08:02:50.522Z,26.46
2023-05-21T08:05:39.378Z,26.32
2023-05-21T08:08:28.130Z,26.29
2023-05-21T08:11:18.244Z,26.46
2023-05-21T08:14:11.608Z,26.34
2023-05-21T08:17:00.272Z,26.30
2023-05-21T08:19:48.986Z,26.38
2023-05-21T08:22:37.697Z,26.39
2023-05-21T08:25:29.341Z,26.48
2023-05-21T08:28:19.425Z,26.44
2023-05-21T08:31:10.206Z,26.75
2023-05-21T08:33:58.873Z,26.72
2023-05-21T08:36:49.952Z,26.64
2023-05-21T08:39:38.636Z,26.64
2023-05-21T08:42:37.519Z,26.70
2023-05-21T08:45:29.064Z,26.81
2023-05-21T08:48:18.487Z,26.99
2023-05-21T08:51:09.481Z,27.00
2023-05-21T08:53:59.303Z,26.82
2023-05-21T08:56:49.573Z,26.98
2023-05-21T08:59:43.253Z,27.08
2023-05-21T09:02:38.938Z,27.17
2023-05-21T09:05:28.658Z,27.00
2023-05-21T09:08:21.849Z,26.80
2023-05-21T09:11:10.710Z,27.11
2023-05-21T09:14:00.598Z,26.89
2023-05-21T09:16:49.345Z,26.90
2023-05-21T09:19:39.972Z,27.13
2023-05-21T09:22:29.483Z,27.05
2023-05-21T09:25:22.355Z,26.93
2023-05-21T09:28:14.449Z,27.10
2023-05-21T09:31:05.303Z,27.18
2023-05-21T09:33:55.639Z,27.31
2023-05-21T09:36:47.231Z,27.33
2023-05-21T09:39:36.070Z,27.30
2023-05-21T09:42:24.760Z,27.40
2023-05-21T09:45:14.970Z,27.46
2023-05-21T09:48:03.872Z,27.50
2023-05-21T09:50:52.952Z,27.49
2023-05-21T09:53:50.045Z,27.48
2023-05-21T09:56:38.738Z,27.51
2023-05-21T09:59:37.855Z,27.55
2023-05-21T10:02:27.723Z,27.30
2023-05-21T10:05:17.572Z,27.28
2023-05-21T10:08:06.738Z,27.39
2023-05-21T10:10:58.341Z,27.21
2023-05-21T10:13:50.640Z,27.29
2023-05-21T10:16:39.329Z,27.16
2023-05-21T10:19:32.060Z,27.30
2023-05-21T10:22:21.156Z,27.50
2023-05-21T10:25:10.503Z,27.42
2023-05-21T10:28:00.638Z,27.36
2023-05-21T10:30:49.752Z,27.44
2023-05-21T10:33:40.040Z,27.41
2023-05-21T10:36:32.732Z,27.54
2023-05-21T10:39:24.029Z,27.36
2023-05-21T10:42:28.290Z,27.50
2023-05-21T10:45:28.721Z,27.52
2023-05-21T10:48:40.558Z,27.67
2023-05-21T10:51:30.736Z,27.66
2023-05-21T10:54:54.387Z,27.51
2023-05-21T10:58:18.182Z,27.34
2023-05-21T11:01:09.383Z,27.37
2023-05-21T11:03:58.107Z,27.34
2023-05-21T11:06:49.608Z,27.35
2023-05-21T11:09:39.771Z,27.20
2023-05-21T11:12:29.874Z,27.48
2023-05-21T11:15:18.485Z,27.37
2023-05-21T11:18:09.479Z,27.42
2023-05-21T11:21:06.009Z,27.50
2023-05-21T11:23:55.341Z,27.34
2023-05-21T11:27:06.715Z,27.44
2023-05-21T11:29:57.452Z,27.55
2023-05-21T11:33:15.911Z,27.51
2023-05-21T11:36:14.373Z,27.42
2023-05-21T11:39:17.912Z,27.46
2023-05-21T11:42:06.943Z,27.69
2023-05-21T11:44:57.999Z,27.84
2023-05-21T11:47:46.874Z,27.76
2023-05-21T11:50:37.620Z,27.83
2023-05-21T11:53:27.936Z,27.76
2023-05-21T11:56:18.395Z,27.74
2023-05-21T11:59:07.101Z,27.66
2023-05-21T12:01:56.961Z,27.52
2023-05-21T12:04:48.582Z,27.67
2023-05-21T12:07:38.524Z,27.72
2023-05-21T12:10:28.751Z,27.66
2023-05-21T12:13:17.371Z,27.75
2023-05-21T12:16:07.368Z,27.78
2023-05-21T12:18:56.502Z,27.86
2023-05-21T12:21:45.661Z,27.83
2023-05-21T12:24:35.534Z,27.96
2023-05-21T12:27:28.243Z,27.85
2023-05-21T12:30:20.149Z,27.73
2023-05-21T12:33:08.819Z,27.70
2023-05-21T12:35:57.676Z,27.68
2023-05-21T12:38:47.684Z,27.51
2023-05-21T12:41:36.420Z,27.57
2023-05-21T12:44:31.717Z,27.64
2023-05-21T12:47:21.026Z,27.44
2023-05-21T12:50:12.351Z,27.60
2023-05-21T12:53:00.966Z,27.51
2023-05-21T12:55:49.766Z,27.87
2023-05-21T12:58:40.262Z,27.89
2023-05-21T13:01:30.361Z,27.69
2023-05-21T13:04:21.602Z,27.57
2023-05-21T13:07:10.341Z,27.57
2023-05-21T13:10:00.053Z,27.50
2023-05-21T13:12:48.665Z,27.62
2023-05-21T13:15:37.520Z,27.86
2023-05-21T13:18:27.876Z,27.78
2023-05-21T13:21:16.747Z,27.92
2023-05-21T13:24:05.746Z,27.97
2023-05-21T13:26:54.407Z,27.90
2023-05-21T13:29:43.156Z,27.96
2023-05-21T13:32:32.078Z,28.02
2023-05-21T13:35:22.313Z,27.96
2023-05-21T13:38:10.975Z,28.04
2023-05-21T13:40:59.660Z,28.02
2023-05-21T13:43:48.408Z,28.03
2023-05-21T13:46:39.463Z,28.02
2023-05-21T13:49:28.310Z,27.94
2023-05-21T13:52:18.449Z,27.72
2023-05-21T13:55:08.152Z,27.63
2023-05-21T13:57:56.885Z,27.57
2023-05-21T14:00:45.729Z,27.70
2023-05-21T14:03:34.994Z,27.76
2023-05-21T14:06:23.685Z,27.71
2023-05-21T14:09:14.052Z,27.61
2023-05-21T14:12:06.243Z,27.78
2023-05-21T14:14:55.533Z,27.79
2023-05-21T14:17:44.260Z,27.86
2023-05-21T14:20:33.100Z,27.81
2023-05-21T14:23:21.939Z,27.79
2023-05-21T14:26:12.107Z,27.88
2023-05-21T14:29:01.442Z,27.89
2023-05-21T14:31:50.267Z,27.92
2023-05-21T14:34:40.605Z,28.01
2023-05-21T14:37:29.257Z,27.91
2023-05-21T14:40:18.366Z,27.98
2023-05-21T14:43:08.521Z,27.93
2023-05-21T14:45:57.465Z,28.05
2023-05-21T14:48:46.685Z,27.92
2023-05-21T14:51:35.413Z,27.93
2023-05-21T14:54:24.043Z,27.87
2023-05-21T14:57:12.727Z,27.84
2023-05-21T15:00:02.996Z,27.76
2023-05-21T15:02:52.253Z,27.87
2023-05-21T15:05:42.202Z,27.79
2023-05-21T15:08:31.002Z,27.77
2023-05-21T15:11:19.690Z,27.73
2023-05-21T15:14:08.414Z,27.77
2023-05-21T15:16:58.442Z,27.75
2023-05-21T15:19:48.764Z,27.81
2023-05-21T15:22:37.810Z,27.78
2023-05-21T15:25:26.531Z,27.80
2023-05-21T15:28:15.422Z,27.92
2023-05-21T15:31:04.479Z,27.87
2023-05-21T15:33:54.681Z,27.91
2023-05-21T15:36:43.358Z,27.87
2023-05-21T15:39:32.084Z,27.86
2023-05-21T15:42:20.915Z,27.90
2023-05-21T15:45:12.039Z,27.93
2023-05-21T15:48:00.756Z,27.88
2023-05-21T15:50:51.241Z,28.01
2023-05-21T15:53:40.113Z,28.10
2023-05-21T15:56:29.192Z,28.22
2023-05-21T15:59:20.699Z,28.23
2023-05-21T16:02:10.127Z,28.46
2023-05-21T16:04:58.887Z,28.58
2023-05-21T16:07:49.203Z,28.47
2023-05-21T16:10:39.985Z,28.65
2023-05-21T16:13:28.802Z,28.65
2023-05-21T16:16:17.613Z,28.66
2023-05-21T16:19:06.842Z,28.61
2023-05-21T16:21:55.497Z,28.80
2023-05-21T16:24:45.680Z,28.89
2023-05-21T16:27:35.549Z,28.89
2023-05-21T16:30:24.224Z,29.03
2023-05-21T16:33:13.040Z,28.97
2023-05-21T16:36:01.722Z,28.93
2023-05-21T16:38:50.521Z,28.84
2023-05-21T16:41:40.577Z,28.67
2023-05-21T16:44:29.350Z,28.57
2023-05-21T16:47:18.291Z,28.59
2023-05-21T16:50:08.581Z,28.55
2023-05-21T16:52:59.205Z,28.52
2023-05-21T16:55:47.929Z,28.58
2023-05-21T16:58:38.100Z,28.51
2023-05-21T17:01:27.038Z,28.49
2023-05-21T17:04:15.689Z,28.48
2023-05-21T17:07:04.509Z,28.45
2023-05-21T17:09:53.438Z,28.39
2023-05-21T17:12:42.102Z,28.28
2023-05-21T17:15:32.323Z,28.19
2023-05-21T17:18:21.175Z,28.18
2023-05-21T17:21:11.095Z,28.27
2023-05-21T17:23:59.765Z,28.24
2023-05-21T17:26:48.438Z,28.20
2023-05-21T17:29:37.117Z,28.09
2023-05-21T17:32:27.198Z,28.15
2023-05-21T17:35:15.994Z,28.09
2023-05-21T17:38:04.747Z,28.02
2023-05-21T17:40:54.423Z,28.03
2023-05-21T17:43:43.090Z,28.01
2023-05-21T17:46:33.876Z,27.88
2023-05-21T17:49:23.914Z,27.93
2023-05-21T17:52:12.817Z,27.98
2023-05-21T17:55:02.421Z,27.92
2023-05-21T17:57:51.045Z,27.90
2023-05-21T18:00:39.850Z,27.91
2023-05-21T18:03:28.574Z,27.91
2023-05-21T18:06:18.822Z,27.89
2023-05-21T18:09:08.242Z,27.92
2023-05-21T18:11:58.365Z,27.74
2023-05-21T18:14:48.077Z,27.75
2023-05-21T18:17:36.814Z,27.73
2023-05-21T18:20:25.950Z,27.77
2023-05-21T18:23:16.228Z,27.82
2023-05-21T18:26:05.835Z,27.83
2023-05-21T18:28:54.588Z,27.85
2023-05-21T18:31:45.599Z,27.80
2023-05-21T18:34:34.334Z,27.79
2023-05-21T18:37:22.938Z,27.75
2023-05-21T18:40:14.770Z,27.66
2023-05-21T18:43:05.986Z,27.62
2023-05-21T18:45:54.682Z,27.47
2023-05-21T18:48:43.366Z,27.54
2023-05-21T18:51:32.541Z,27.53
2023-05-21T18:54:21.228Z,27.49
2023-05-21T18:57:11.996Z,27.51
2023-05-21T19:00:00.959Z,27.53
2023-05-21T19:02:49.756Z,27.45
2023-05-21T19:05:38.553Z,27.45
2023-05-21T19:08:27.207Z,27.50
2023-05-21T19:11:17.521Z,27.44
2023-05-21T19:14:07.799Z,27.48
2023-05-21T19:16:56.458Z,27.38
2023-05-21T19:19:45.141Z,27.41
2023-05-21T19:22:34.036Z,27.38
2023-05-21T19:28:41.560Z,27.34
2023-05-21T19:31:31.584Z,27.32
2023-05-21T19:34:20.807Z,27.29
2023-05-21T19:37:09.612Z,27.29
2023-05-21T19:39:58.458Z,27.32
2023-05-21T19:42:47.514Z,27.30
2023-05-21T19:45:36.301Z,27.26
2023-05-21T19:48:26.463Z,27.22
2023-05-21T19:51:15.791Z,27.25
2023-05-21T19:54:04.449Z,27.18
2023-05-21T19:56:53.239Z,27.06
2023-05-21T19:59:41.940Z,27.10
2023-05-21T20:02:30.734Z,27.17
2023-05-21T20:05:21.082Z,27.19
2023-05-21T20:08:09.687Z,27.19
2023-05-21T20:10:58.294Z,27.22
2023-05-21T20:13:50.080Z,27.21
2023-05-21T20:16:38.868Z,27.16
2023-05-21T20:19:28.089Z,27.16
2023-05-21T20:22:18.385Z,27.11
2023-05-21T20:25:08.783Z,27.05
2023-05-21T20:27:58.072Z,27.04
2023-05-21T20:30:57.316Z,27.03
2023-05-21T20:33:46.374Z,27.02
2023-05-21T20:36:35.321Z,26.99
2023-05-21T20:39:27.257Z,26.99
2023-05-21T20:42:16.180Z,27.02
2023-05-21T20:45:05.136Z,26.97
2023-05-21T20:47:53.917Z,26.98
2023-05-21T20:50:44.134Z,26.97
2023-05-21T20:53:33.775Z,26.94
2023-05-21T20:56:40.043Z,26.93
2023-05-21T20:59:30.702Z,26.88
2023-05-21T21:02:20.167Z,26.81
2023-05-21T21:05:10.578Z,26.76
2023-05-21T21:08:02.618Z,26.79
2023-05-21T21:10:51.554Z,26.82
2023-05-21T21:13:41.808Z,26.85
2023-05-21T21:16:30.665Z,26.88
2023-05-21T21:19:19.804Z,26.79
2023-05-21T21:22:08.473Z,26.72
2023-05-21T21:24:57.108Z,26.76
2023-05-21T21:27:45.805Z,26.76
2023-05-21T21:30:35.828Z,26.73
2023-05-21T21:33:26.663Z,26.70
2023-05-21T21:36:15.470Z,26.64
2023-05-21T21:39:04.319Z,26.67
2023-05-21T21:41:53.069Z,26.67
2023-05-21T21:44:42.239Z,26.63
2023-05-21T21:47:33.631Z,26.56
2023-05-21T21:50:22.334Z,26.52
2023-05-21T21:53:12.615Z,26.56
2023-05-21T21:56:01.404Z,26.58
2023-05-21T21:58:50.048Z,26.55
2023-05-21T22:01:39.437Z,26.57
2023-05-21T22:04:29.745Z,26.54
2023-05-21T22:07:18.655Z,26.57
2023-05-21T22:10:08.190Z,26.54
2023-05-21T22:12:57.038Z,26.54
2023-05-21T22:15:45.828Z,26.53
2023-05-21T22:18:40.401Z,26.51
2023-05-21T22:21:33.927Z,26.49
2023-05-21T22:24:31.956Z,26.46
2023-05-21T22:27:22.085Z,26.47
2023-05-21T22:30:11.556Z,26.44
2023-05-21T22:33:00.551Z,26.41
2023-05-21T22:35:49.174Z,26.44
2023-05-21T22:38:39.281Z,26.45
2023-05-21T22:41:28.024Z,26.44
2023-05-21T22:44:16.729Z,26.45
2023-05-21T22:47:06.482Z,26.40
2023-05-21T22:49:58.180Z,26.41
2023-05-21T22:52:47.348Z,26.40
2023-05-21T22:55:37.397Z,26.39
2023-05-21T22:58:26.024Z,26.43
2023-05-21T23:01:14.888Z,26.37
2023-05-21T23:04:03.725Z,26.31
2023-05-21T23:06:52.807Z,26.30
2023-05-21T23:09:41.677Z,26.31
2023-05-21T23:12:31.730Z,26.28
2023-05-21T23:15:21.694Z,26.25
2023-05-21T23:18:11.404Z,26.24
2023-05-21T23:21:00.270Z,26.19
2023-05-21T23:23:49.009Z,26.20
2023-05-21T23:26:37.674Z,26.17
2023-05-21T23:29:27.679Z,26.20
2023-05-21T23:32:16.361Z,26.09
2023-05-21T23:35:05.304Z,26.07
2023-05-21T23:37:54.005Z,26.11
2023-05-21T23:40:43.696Z,26.08
2023-05-21T23:43:32.474Z,26.04
2023-05-21T23:46:22.919Z,26.00
2023-05-21T23:49:11.983Z,25.98
2023-05-21T23:52:01.506Z,26.01
2023-05-21T23:54:50.111Z,26.01
2023-05-21T23:57:39.197Z,25.96
